Flight Track Log - Related Links

Times and Time Zones

All times are in EDT time to prevent confusion due to time zone crossing. See the C-FTOH flight status page for this flight to view local times or setup timezone preferences in your user account.

Time Position Orientation Groundspeed Altitude Reporting Facility
EDT Latitude Longitude Course Direction KTS MPH feet Rate Location/Type
Thu 10:56:08 PM 48.3167 -71.0833 185° South 180 207 6,700  Level Montreal Center
Thu 10:57:08 PM 48.2333 -71.1000 186° South 280 322 10,000 3,069 Climbing Montreal Center
Thu 10:59:02 PM 48.1160 -71.1400 185° South 293 337 15,600 2,113 Climbing FlightAware ADS-B
Thu 10:59:47 PM 48.0600 -71.1470 185° South 293 337 15,600 364 Level FlightAware ADS-B
Thu 11:00:08 PM 48.0000 -71.1500 185° South 290 334 16,000 222 Climbing Montreal Center
Thu 11:02:02 PM 47.8650 -71.1750 186° South 287 330 16,100 38 Climbing FlightAware ADS-B
Thu 11:02:47 PM 47.8030 -71.1840 186° South 287 330 16,100  Level FlightAware ADS-B
Thu 11:03:32 PM 47.7460 -71.1920 185° South 286 329 16,100  Level FlightAware ADS-B
Thu 11:04:12 PM 47.6920 -71.1990 185° South 284 327 16,100  Level FlightAware ADS-B
Thu 11:04:57 PM 47.6340 -71.2070 185° South 283 326 16,100 -494 Level FlightAware ADS-B
Thu 11:05:37 PM 47.5840 -71.2140 185° South 270 311 15,400 -1,050 Descending FlightAware ADS-B
Thu 11:06:17 PM 47.5330 -71.2210 185° South 275 316 14,700 -1,129 Descending FlightAware ADS-B
Thu 11:07:02 PM 47.4750 -71.2290 185° South 278 320 13,800 -1,482 Descending FlightAware ADS-B
Thu 11:07:42 PM 47.4240 -71.2360 185° South 281 323 12,600 -1,765 Descending FlightAware ADS-B
Thu 11:08:27 PM 47.3660 -71.2440 185° South 280 322 11,300 -1,694 Descending FlightAware ADS-B
Thu 11:09:07 PM 47.3150 -71.2510 185° South 274 315 10,200 -1,200 Descending FlightAware ADS-B
Thu 11:09:37 PM 47.2780 -71.2560 185° South 254 292 9,900 -982 Descending FlightAware ADS-B
Thu 11:10:02 PM 47.2490 -71.2600 185° South 253 291 9,300 -1,309 Descending FlightAware ADS-B
Thu 11:10:32 PM 47.2150 -71.2650 186° South 250 288 8,700 -1,309 Descending FlightAware ADS-B
Thu 11:10:57 PM 47.1860 -71.2690 185° South 248 285 8,100 -1,418 Descending FlightAware ADS-B
Thu 11:11:27 PM 47.1520 -71.2730 185° South 246 283 7,400 -1,300 Descending FlightAware ADS-B
Thu 11:11:57 PM 47.1190 -71.2770 185° South 247 284 6,800 -1,200 Descending FlightAware ADS-B
Thu 11:12:12 PM 47.1010 -71.2720 169° South 261 300 6,500 -1,400 Descending FlightAware ADS-B
Thu 11:12:27 PM 47.0850 -71.2600 153° Southeast 266 306 6,100 -1,350 Descending FlightAware ADS-B
Thu 11:12:52 PM 47.0580 -71.2390 152° Southeast 260 299 5,600 -982 Descending FlightAware ADS-B
Thu 11:13:22 PM 47.0280 -71.2150 151° Southeast 246 283 5,200 -655 Descending FlightAware ADS-B
Thu 11:13:47 PM 47.0040 -71.1960 152° Southeast 225 259 5,000 -655 Descending FlightAware ADS-B
Thu 11:14:17 PM 46.9770 -71.1760 153° Southeast 210 242 4,600 -600 Descending FlightAware ADS-B
Thu 11:14:37 PM 46.9600 -71.1660 158° South 188 216 4,500 -600 Descending FlightAware ADS-B
Thu 11:14:57 PM 46.9450 -71.1720 195° South 161 185 4,200 -840 Descending FlightAware ADS-B
Thu 11:15:27 PM 46.9300 -71.1940 225° Southwest 151 174 3,800 -764 Descending FlightAware ADS-B
Thu 11:15:52 PM 46.9180 -71.2110 224° Southwest 143 165 3,500 -764 Descending FlightAware ADS-B
Thu 11:16:22 PM 46.9040 -71.2300 223° Southwest 130 150 3,100 -655 Descending FlightAware ADS-B
Thu 11:16:47 PM 46.8940 -71.2440 224° Southwest 115 132 2,900 -545 Descending FlightAware ADS-B
Thu 11:17:17 PM 46.8830 -71.2610 227° Southwest 115 132 2,600 -600 Descending FlightAware ADS-B
Thu 11:17:47 PM 46.8720 -71.2770 225° Southwest 108 124 2,300 -655 Descending FlightAware ADS-B
Thu 11:18:12 PM 46.8640 -71.2890 226° Southwest 105 121 2,000 -655 Descending FlightAware ADS-B
Thu 11:18:42 PM 46.8530 -71.3040 223° Southwest 106 122 1,700 -500 Descending FlightAware ADS-B
Thu 11:19:12 PM 46.8430 -71.3190 226° Southwest 107 123 1,500 -545 Descending FlightAware ADS-B
Thu 11:19:37 PM 46.8340 -71.3320 225° Southwest 111 128 1,200 -655 Descending FlightAware ADS-B
Thu 11:20:07 PM 46.8230 -71.3480 225° Southwest 113 130 900 -545 Descending FlightAware ADS-B
Thu 11:20:32 PM 46.8140 -71.3610 225° Southwest 115 132 700 -545 Descending FlightAware ADS-B
Thu 11:21:02 PM 46.8020 -71.3780 224° Southwest 124 143 400 -400 Descending FlightAware ADS-B
Thu 11:21:32 PM 46.7900 -71.3950 224° Southwest 124 143 300 -200 Descending FlightAware ADS-B

Login

Don't have an account? Register now (free) for customized features, flight alerts, and more!